Memphis, Tennessee
Current Conditions -  °F | °C
As of 7:54 PM on Friday 21 Nov 2014 (Local Time) from KMEM Reporting Station
Overcast Overcast  
Wind Chill: 50°   Ceiling: 9000
Heat Index: 50°   Visibility: 10mi
Dew Point: 42°   Wind: 6mph
Humidity: 74%   Direction: 90°E
Pressure: 30.28"   Gusts: NA
Location:  35.15°N, 90.05°W
Report Text: KMEM 220154Z 09005KT 10SM BKN090 OVC200 10/06 A3028 RMK AO2 RAE18 SLP254 P0000 T01000056 $
Loading
Personal Weather Stations






























Interactive Weather Map New forecast layout! Learn more

10-Day Weather Forecast

Advertisements
Track Severe Weather on mobile